INDIA METEOROLOGICAL DEPARTMENT, R.M.C. NEW DELHI
Dated:27-09-2020
METARS


Ahmedabad  
VAAH 271600Z 24004KT 4000 BR SCT018 BKN080 29/25 Q1009 NOSIG=
Allahabad  
VEAB 271530Z 00000KT 6000 FEW025 26/25 Q1007 NOSIG=
Aurangabad 
VAAU 271500Z 34003KT 6000 SCT020 24/21 Q1011 NOSIG=
Bangalore  
VOBL 271630Z VRB03KT 6000 SCT012 BKN080 22/22 Q1015 NOSIG=
Baroda     
VABO 271500Z 20004KT 6000 FEW020 39/22 Q1007 NOSIG=
Bhubaneswar
VEBS 271600Z 13005KT 2500 HZ SCT018 SCT100 29/27 Q1005 NOSIG=
Chennai    
VOMM 271630Z 25003KT 5000 BR SCT020 SCT100 29/26 Q1009 NOSIG=
Coimbatore 
VOCB 271630Z 20008KT 6000 SCT012 BKN080 25/23 Q1012 NOSIG=
Colombo    
VCBI 271610Z 20005KT 9999 SCT017 28/25 Q1011 NOSIG=
Delhi      
VIDP 271600Z 00000KT 3200 HZ FEW100 28/20 Q1007 NOSIG=
Gauhati    
VEGT 271630Z 00000KT 3000 BR SCT018 BKN100 28/28 Q1006 NOSIG=
Gaya       
VEGY 271600Z 00000KT 3000 BR FEW018 SCT100 27/25 Q1007=
Goa        
VOGO 271600Z 09003KT 6000 SCT014 25/25 Q1010 NOSIG=
Hyderabad  
VOHS 271630Z 24004KT 5000 BR SCT015 BKN100 23/22 Q1013 NOSIG=
Indore     
VAID 271500Z 00000KT 6000 FEW020 25/20 Q1010 NOSIG=
Jaipur     
VIJP 271630Z VRB03KT 3000 HZ SCT030 26/21 Q1008 NOSIG=
Kochi      
VOCI 271600Z 00000KT 5000 HZ FEW015 27/25 Q1010 NOSIG=
Kolkata    
VECC 271600Z 16003KT 3500 HZ SCT020 30/29 Q1005 NOSIG=
Kozhikode  
VOCL 271600Z 36003KT 5000 BR FEW012 SCT018 BKN080 26/23 Q1010 NOSIG=
Lucknow    
VILK 271600Z 00000KT 3000 BR FEW020 SCT200 29/26 Q1006 NOSIG=
Madurai    
VOMD 271600Z 07006KT 6000 -TSRA SCT018 FEW025CB BKN090 27/24 Q1011 TEMPO 5000 -TSRA=
Mumbai     
VABB 271630Z 26003KT 4000 HZ SCT020 SCT100 29/24 Q1010 NOSIG=
Nagpur     
VANP 271630Z 30001KT 3000 HZ SCT018 BKN080 27/23 Q1009 NOSIG=
Patna      
VEPT 271630Z 00000KT 3500 HZ FEW018 SCT100 26/23 Q1005 NOSIG=
Raipur     
VERP 271600Z 21006KT 3000 BR SCT020 SCT090 27/24 Q1008 NOSIG=
Surat     
VASU 271500Z 20005KT 6000 FEW025 28/23 Q1008 NOSIG=
Ranchi     
VERC 271600Z 00000KT 3500 HZ SCT018 SCT100 25/23 Q1010 NOSIG=
Trichy     
VOTR 271600Z 26008KT 4000 -TSRA SCT016 FEW025CB OVC080 25/23 Q1010 BECMG 5000 -TSRA=
Trivandrum 
VOTV 271600Z 33003KT 3000 BR FEW015 28/27 Q1011 NOSIG=
Varanasi   
VEBN 271600Z VRB01KT 3000 BR FEW020 27/22 Q1006 NOSIG=
Vizag      
VOVZ 271600Z VRB02KT 3500 BR FEW018 BKN080 28/24 Q1006 NOSIG=
Male       
VRMM 271600Z 05004KT 9999 FEW018 BKN280 29/25 Q1011 NOSIG=
Gan        
VRMG 271600Z 00000KT 9000 FEW017 FEW018CB BKN260 25/25 Q1011 CB NW TEMPO 5000 -SHRA=
Kathmandu  
VNKT 271620Z VRB02KT 7000 FEW015 SCT030 22/20 Q1015 NOSIG=
Dhaka      
VGHS 271600Z 12005KT 4000 HZ FEW015 SCT100 29/24 Q1006 NOSIG=
Colombo    
VCBI 271610Z 20005KT 9999 SCT017 28/25 Q1011 NOSIG=
Karachi    
OPKC 271600Z 24006KT 6000 FEW020 28/22 Q1007 NOSIG=
Lahore     
OPLA 271555Z NIL=
Gorakhpur  
VEGK 271530Z VRB01KT 6000 FEW025 BKN250 27/27 Q1005 NOSIG=
Agra       
VIAG 271530Z VRB01KT 6000 FEW030 27/23 Q1006 NOSIG=
Bagdogra   
VEBD 271530Z VRB02KT 6000 FEW025 SCT090 25/23 Q1007 NOSIG=
Gwalior    
VIGR 271530Z VRB02KT 6000 FEW025 30/22 Q1007 NOSIG=
Pune       
VAPO 271530Z 29004KT 6000 SCT025 23/21 Q1013 NOSIG=
Jamnagar   
VAJM 271530Z 24003KT 6000 FEW020 SCT250 27/24 Q1008 NOSIG=
Pathankot   
VIPK 271530Z VRB02KT 5000 BR SKC 25/21 Q1007 NOSIG=